Terminal Aerodrome Forecast
Issued by NWS Rapid City, SD

Home | Current Version | Previous Version | Text Only | Print | Product List | Glossary Off
Versions: 1 2 3 4 5 6 7 8 9 10 11 12 13 14 15 16 17 18 19

000
FTUS43 KUNR 192320
TAFRAP
TAF
KRAP 192320Z 2000/2024 01006KT P6SM BKN250
     FM200800 35008KT P6SM BKN040
     FM201000 34009KT P6SM OVC015
     FM201500 34007KT 1 1/2SM -SN OVC007=

USA.gov is the U.S. government's official web portal to all federal, state and local government web resources and services.